Nova, Ohio
Current Conditions -  °F | °C
As of 12:52 PM on Thursday 23 Oct 2014 (Local Time) from KMFD Reporting Station
Clear Clear  
Wind Chill: 51°   Ceiling: Unl
Heat Index: 51°   Visibility: 10mi
Dew Point: 40°   Wind: 6mph
Humidity: 66%   Direction: 340°NNW
Pressure: 30.21"   Gusts: NA
Location:  41.03°N, 82.3°W
Report Text: KMFD 231652Z 34005KT 10SM CLR 11/04 A3021 RMK AO2 SLP235 T01060044
Loading
Personal Weather Stations






























Interactive Weather Map
Tropical Storm Tracking
New forecast layout! Learn more

10-Day Weather Forecast

Advertisements
Track Severe Weather on mobile